createdAt,value
2019-05-21T00:00:22.959Z,28.07
2019-05-21T00:02:52.841Z,31.77
2019-05-21T00:05:22.945Z,29.13
2019-05-21T00:07:52.525Z,26.53
2019-05-21T00:10:22.064Z,27.57
2019-05-21T00:12:51.621Z,28.97
2019-05-21T00:15:21.182Z,28.90
2019-05-21T00:17:50.954Z,27.57
2019-05-21T00:20:21.383Z,28.10
2019-05-21T00:22:50.981Z,25.03
2019-05-21T00:25:20.543Z,27.03
2019-05-21T00:27:50.105Z,24.53
2019-05-21T00:31:14.391Z,27.27
2019-05-21T00:34:44.039Z,23.33
2019-05-21T00:38:04.998Z,23.77
2019-05-21T00:41:29.489Z,26.77
2019-05-21T00:43:59.850Z,26.40
2019-05-21T00:46:29.401Z,22.80
2019-05-21T00:48:59.048Z,24.87
2019-05-21T00:51:28.595Z,25.80
2019-05-21T00:53:58.193Z,20.17
2019-05-21T00:56:27.743Z,20.40
2019-05-21T00:58:57.551Z,18.87
2019-05-21T01:01:27.121Z,19.90
2019-05-21T01:03:56.746Z,20.63
2019-05-21T01:06:26.351Z,19.93
2019-05-21T01:08:56.562Z,19.37
2019-05-21T01:11:26.074Z,17.23
2019-05-21T01:13:55.626Z,20.87
2019-05-21T01:16:25.712Z,18.57
2019-05-21T01:18:58.066Z,18.60
2019-05-21T01:21:27.733Z,17.83
2019-05-21T01:23:58.087Z,17.10
2019-05-21T01:26:29.913Z,17.37
2019-05-21T01:29:01.888Z,18.90
2019-05-21T01:31:31.585Z,18.27
2019-05-21T01:34:01.213Z,18.10
2019-05-21T01:36:30.912Z,18.80
2019-05-21T01:39:00.497Z,18.13
2019-05-21T01:41:30.352Z,18.83
2019-05-21T01:43:59.963Z,19.07
2019-05-21T01:46:29.550Z,19.53
2019-05-21T01:48:59.123Z,18.33
2019-05-21T01:51:28.749Z,20.63
2019-05-21T01:53:58.540Z,17.83
2019-05-21T01:56:29.116Z,18.93
2019-05-21T01:58:58.958Z,19.50
2019-05-21T02:01:28.522Z,20.23
2019-05-21T02:03:58.185Z,19.23
2019-05-21T02:06:27.731Z,20.57
2019-05-21T02:08:57.682Z,18.30
2019-05-21T02:11:27.221Z,19.33
2019-05-21T02:13:56.803Z,25.23
2019-05-21T02:16:26.406Z,22.47
2019-05-21T02:18:55.948Z,24.47
2019-05-21T02:21:25.556Z,24.10
2019-05-21T02:23:55.368Z,24.93
2019-05-21T02:26:24.945Z,25.50
2019-05-21T02:28:55.680Z,29.30
2019-05-21T02:31:25.242Z,26.50
2019-05-21T02:33:55.263Z,25.83
2019-05-21T02:36:25.127Z,26.10
2019-05-21T02:38:57.144Z,27.27
2019-05-21T02:41:27.329Z,26.87
2019-05-21T02:43:56.885Z,28.87
2019-05-21T02:46:26.866Z,31.17
2019-05-21T02:48:56.726Z,32.30
2019-05-21T02:51:26.773Z,31.53
2019-05-21T02:53:56.895Z,36.77
2019-05-21T02:56:26.543Z,34.60
2019-05-21T02:58:56.114Z,37.23
2019-05-21T03:01:29.775Z,35.27
2019-05-21T03:03:59.471Z,38.67
2019-05-21T03:06:29.239Z,37.30
2019-05-21T03:08:59.026Z,36.03
2019-05-21T03:11:28.666Z,35.67
2019-05-21T03:13:59.020Z,39.87
2019-05-21T03:16:28.971Z,38.40
2019-05-21T03:18:58.868Z,41.43
2019-05-21T03:21:28.431Z,37.63
2019-05-21T03:23:58.028Z,43.93
2019-05-21T03:26:27.559Z,42.87
2019-05-21T03:28:57.410Z,38.33
2019-05-21T03:31:27.322Z,38.07
2019-05-21T03:33:56.904Z,42.17
2019-05-21T03:36:33.442Z,37.10
2019-05-21T03:38:58.006Z,38.40
2019-05-21T03:41:27.569Z,39.50
2019-05-21T03:43:57.357Z,36.97
2019-05-21T03:46:26.994Z,37.23
2019-05-21T03:48:56.709Z,39.63
2019-05-21T03:51:26.249Z,34.63
2019-05-21T03:53:55.811Z,38.87
2019-05-21T03:56:25.454Z,34.33
2019-05-21T03:58:55.177Z,36.10
2019-05-21T04:01:24.732Z,32.50
2019-05-21T04:03:54.288Z,36.33
2019-05-21T04:06:24.048Z,32.77
2019-05-21T04:08:53.599Z,28.80
2019-05-21T04:11:23.570Z,30.60
2019-05-21T04:13:53.113Z,27.50
2019-05-21T04:16:36.714Z,28.23
2019-05-21T04:19:10.758Z,28.80
2019-05-21T04:21:40.684Z,28.10
2019-05-21T04:24:10.239Z,27.20
2019-05-21T04:26:39.849Z,27.63
2019-05-21T04:29:09.858Z,29.30
2019-05-21T04:31:39.431Z,25.97
2019-05-21T04:34:09.092Z,23.63
2019-05-21T04:36:38.680Z,23.97
2019-05-21T04:39:08.580Z,25.23
2019-05-21T04:41:38.128Z,22.37
2019-05-21T04:44:08.245Z,22.47
2019-05-21T04:46:37.821Z,20.13
2019-05-21T04:49:07.552Z,19.77
2019-05-21T04:51:37.101Z,20.10
2019-05-21T04:54:06.958Z,22.30
2019-05-21T04:56:36.539Z,21.00
2019-05-21T04:59:06.350Z,22.17
2019-05-21T05:01:36.042Z,22.80
2019-05-21T05:04:05.971Z,24.93
2019-05-21T05:06:35.888Z,20.87
2019-05-21T05:09:07.475Z,20.03
2019-05-21T05:11:37.068Z,22.17
2019-05-21T05:14:07.024Z,22.37
2019-05-21T05:16:36.772Z,21.20
2019-05-21T05:19:06.382Z,21.90
2019-05-21T05:21:36.113Z,23.00
2019-05-21T05:24:05.780Z,21.77
2019-05-21T05:26:35.314Z,19.80
2019-05-21T05:29:04.988Z,20.30
2019-05-21T05:31:34.645Z,18.97
2019-05-21T05:34:04.272Z,20.93
2019-05-21T05:36:33.810Z,19.47
2019-05-21T05:39:04.924Z,21.93
2019-05-21T05:41:34.507Z,19.17
2019-05-21T05:44:04.302Z,19.97
2019-05-21T05:46:33.897Z,19.00
2019-05-21T05:49:05.125Z,20.73
2019-05-21T05:51:34.858Z,19.33
2019-05-21T05:54:07.548Z,21.33
2019-05-21T05:56:36.173Z,21.30
2019-05-21T05:59:06.136Z,21.47
2019-05-21T06:01:35.871Z,18.57
2019-05-21T06:04:05.616Z,18.13
2019-05-21T06:06:35.183Z,17.40
2019-05-21T06:09:05.611Z,17.93
2019-05-21T06:11:35.316Z,16.87
2019-05-21T06:14:04.982Z,18.93
2019-05-21T06:16:34.738Z,17.60
2019-05-21T06:19:04.593Z,18.33
2019-05-21T06:21:34.681Z,18.43
2019-05-21T06:24:04.457Z,16.17
2019-05-21T06:26:34.356Z,16.43
2019-05-21T06:29:03.950Z,16.07
2019-05-21T06:31:33.520Z,17.07
2019-05-21T06:34:03.077Z,15.90
2019-05-21T06:36:33.143Z,17.60
2019-05-21T06:39:03.235Z,15.20
2019-05-21T06:41:32.840Z,14.40
2019-05-21T06:44:03.477Z,14.97
2019-05-21T06:46:33.252Z,14.83
2019-05-21T06:49:02.799Z,14.60
2019-05-21T06:51:32.707Z,14.93
2019-05-21T06:54:02.781Z,13.13
2019-05-21T06:56:32.735Z,13.93
2019-05-21T06:59:02.386Z,15.37
2019-05-21T07:01:32.137Z,14.07
2019-05-21T07:04:01.767Z,16.23
2019-05-21T07:06:31.479Z,14.63
2019-05-21T07:09:01.226Z,15.17
2019-05-21T07:11:30.895Z,14.87
2019-05-21T07:14:01.534Z,14.10
2019-05-21T07:16:31.125Z,13.37
2019-05-21T07:19:00.828Z,13.37
2019-05-21T07:21:30.592Z,13.90
2019-05-21T07:24:00.442Z,14.17
2019-05-21T07:26:29.970Z,14.90
2019-05-21T07:28:59.547Z,17.03
2019-05-21T07:31:29.991Z,17.10
2019-05-21T07:33:59.843Z,16.60
2019-05-21T07:36:31.745Z,17.60
2019-05-21T07:39:01.409Z,15.07
2019-05-21T07:41:30.971Z,16.93
2019-05-21T07:44:00.552Z,16.83
2019-05-21T07:46:32.330Z,18.97
2019-05-21T07:49:01.962Z,16.00
2019-05-21T07:51:31.815Z,16.70
2019-05-21T07:54:01.454Z,18.43
2019-05-21T07:56:31.181Z,17.03
2019-05-21T07:59:01.392Z,18.87
2019-05-21T08:01:31.507Z,17.03
2019-05-21T08:04:01.310Z,16.53
2019-05-21T08:06:30.906Z,16.40
2019-05-21T08:09:12.384Z,17.50
2019-05-21T08:11:31.860Z,18.33
2019-05-21T08:14:01.443Z,16.67
2019-05-21T08:16:31.008Z,16.77
2019-05-21T08:19:00.547Z,14.23
2019-05-21T08:21:30.110Z,16.47
2019-05-21T08:23:59.652Z,18.07
2019-05-21T08:26:29.219Z,18.87
2019-05-21T08:28:59.120Z,15.33
2019-05-21T08:31:29.195Z,15.27
2019-05-21T08:33:58.819Z,16.33
2019-05-21T08:36:28.984Z,13.77
2019-05-21T08:38:58.979Z,12.53
2019-05-21T08:41:29.163Z,16.17
2019-05-21T08:43:58.935Z,14.57
2019-05-21T08:46:28.728Z,13.53
2019-05-21T08:48:58.382Z,17.77
2019-05-21T08:51:28.287Z,13.53
2019-05-21T08:53:57.858Z,14.53
2019-05-21T08:56:28.381Z,13.73
2019-05-21T08:58:58.325Z,13.60
2019-05-21T09:01:28.403Z,17.60
2019-05-21T09:03:58.503Z,15.33
2019-05-21T09:06:28.168Z,14.07
2019-05-21T09:08:57.736Z,15.53
2019-05-21T09:11:27.346Z,15.27
2019-05-21T09:13:57.279Z,14.37
2019-05-21T09:16:27.582Z,14.77
2019-05-21T09:18:58.385Z,15.43
2019-05-21T09:21:28.490Z,15.17
2019-05-21T09:23:58.394Z,14.97
2019-05-21T09:26:28.160Z,15.67
2019-05-21T09:28:57.987Z,17.50
2019-05-21T09:31:27.556Z,16.60
2019-05-21T09:33:57.373Z,16.07
2019-05-21T09:36:28.409Z,15.37
2019-05-21T09:38:58.030Z,15.73
2019-05-21T09:41:28.590Z,15.67
2019-05-21T09:43:58.243Z,15.03
2019-05-21T09:46:27.806Z,14.03
2019-05-21T09:48:57.732Z,15.00
2019-05-21T09:51:27.395Z,13.63
2019-05-21T09:53:57.302Z,17.57
2019-05-21T09:56:32.811Z,13.63
2019-05-21T09:59:11.873Z,14.40
2019-05-21T10:01:47.430Z,14.17
2019-05-21T10:04:16.014Z,15.23
2019-05-21T10:06:49.175Z,13.37
2019-05-21T10:09:20.459Z,14.67
2019-05-21T10:11:50.010Z,15.63
2019-05-21T10:14:19.791Z,13.77
2019-05-21T10:16:49.367Z,12.60
2019-05-21T10:19:18.988Z,14.77
2019-05-21T10:21:48.804Z,14.53
2019-05-21T10:24:18.380Z,16.53
2019-05-21T10:26:47.920Z,16.77
2019-05-21T10:29:19.644Z,16.07
2019-05-21T10:31:49.492Z,15.13
2019-05-21T10:34:19.798Z,16.30
2019-05-21T10:36:49.394Z,17.03
2019-05-21T10:39:19.647Z,16.63
2019-05-21T10:41:50.082Z,17.10
2019-05-21T10:44:19.782Z,16.03
2019-05-21T10:46:49.900Z,15.97
2019-05-21T10:49:19.548Z,17.63
2019-05-21T10:51:49.120Z,14.83
2019-05-21T10:54:18.719Z,18.37
2019-05-21T10:56:48.724Z,15.53
2019-05-21T10:59:18.374Z,17.33
2019-05-21T11:01:49.792Z,19.33
2019-05-21T11:04:22.288Z,18.90
2019-05-21T11:06:52.073Z,16.20
2019-05-21T11:09:23.003Z,20.23
2019-05-21T11:11:52.944Z,18.00
2019-05-21T11:14:22.421Z,18.43
2019-05-21T11:16:52.702Z,17.20
2019-05-21T11:19:23.171Z,19.37
2019-05-21T11:21:53.076Z,17.27
2019-05-21T11:24:22.702Z,17.60
2019-05-21T11:26:52.285Z,17.57
2019-05-21T11:29:22.150Z,19.53
2019-05-21T11:31:57.008Z,18.93
2019-05-21T11:34:23.335Z,20.27
2019-05-21T11:36:53.291Z,19.33
2019-05-21T11:39:23.121Z,19.87
2019-05-21T11:41:52.676Z,18.67
2019-05-21T11:44:22.384Z,19.70
2019-05-21T11:46:52.717Z,19.60
2019-05-21T11:49:22.260Z,19.33
2019-05-21T11:51:51.896Z,18.27
2019-05-21T11:54:21.526Z,17.30
2019-05-21T11:56:51.255Z,19.00
2019-05-21T11:59:21.767Z,20.10
2019-05-21T12:01:51.520Z,22.00
2019-05-21T12:04:21.938Z,22.10
2019-05-21T12:06:52.098Z,21.40
2019-05-21T12:09:21.787Z,20.07
2019-05-21T12:11:53.354Z,19.93
2019-05-21T12:14:23.681Z,21.93
2019-05-21T12:16:53.763Z,19.83
2019-05-21T12:19:23.522Z,20.53
2019-05-21T12:21:53.218Z,19.73
2019-05-21T12:24:22.763Z,21.47
2019-05-21T12:26:52.369Z,20.63
2019-05-21T12:29:22.134Z,24.83
2019-05-21T12:31:51.986Z,19.53
2019-05-21T12:34:21.945Z,23.80
2019-05-21T12:36:51.545Z,20.17
2019-05-21T12:39:21.133Z,20.67
2019-05-21T12:41:51.380Z,20.00
2019-05-21T12:44:20.982Z,21.77
2019-05-21T12:46:50.539Z,22.80
2019-05-21T12:49:20.458Z,21.80
2019-05-21T12:51:50.201Z,20.53
2019-05-21T12:54:19.715Z,19.87
2019-05-21T12:56:49.565Z,20.53
2019-05-21T12:59:19.340Z,23.23
2019-05-21T13:01:48.986Z,20.20
2019-05-21T13:04:18.666Z,23.70
2019-05-21T13:06:48.464Z,21.03
2019-05-21T13:09:31.278Z,20.40
2019-05-21T13:11:49.533Z,20.70
2019-05-21T13:14:19.244Z,22.70
2019-05-21T13:16:49.398Z,19.93
2019-05-21T13:19:19.137Z,23.47
2019-05-21T13:21:48.851Z,21.20
2019-05-21T13:24:18.436Z,20.00
2019-05-21T13:26:47.970Z,19.63
2019-05-21T13:29:17.950Z,21.00
2019-05-21T13:31:48.142Z,22.43
2019-05-21T13:34:17.754Z,19.93
2019-05-21T13:36:47.388Z,18.60
2019-05-21T13:39:17.375Z,19.10
2019-05-21T13:41:48.387Z,18.67
2019-05-21T13:44:18.109Z,19.73
2019-05-21T13:46:47.656Z,19.70
2019-05-21T13:49:17.349Z,18.93
2019-05-21T13:51:47.184Z,18.77
2019-05-21T13:54:18.615Z,21.33
2019-05-21T13:56:48.898Z,18.17
2019-05-21T13:59:19.539Z,17.53
2019-05-21T14:01:49.210Z,17.23
2019-05-21T14:04:19.432Z,17.53
2019-05-21T14:06:49.028Z,17.97
2019-05-21T14:09:19.017Z,19.67
2019-05-21T14:11:49.615Z,20.60
2019-05-21T14:14:19.358Z,18.43
2019-05-21T14:16:49.159Z,21.37
2019-05-21T14:19:19.034Z,18.63
2019-05-21T14:21:49.770Z,18.50
2019-05-21T14:24:19.945Z,17.83
2019-05-21T14:26:49.735Z,17.27
2019-05-21T14:29:19.495Z,18.47
2019-05-21T14:31:49.326Z,16.53
2019-05-21T14:34:19.442Z,18.23
2019-05-21T14:36:49.469Z,19.97
2019-05-21T14:39:19.348Z,19.10
2019-05-21T14:41:48.970Z,20.03
2019-05-21T14:44:18.682Z,17.90
2019-05-21T14:46:48.292Z,18.43
2019-05-21T14:49:18.037Z,22.30
2019-05-21T14:51:47.609Z,17.97
2019-05-21T14:54:26.734Z,17.67
2019-05-21T14:56:48.898Z,16.70
2019-05-21T14:59:18.467Z,19.07
2019-05-21T15:01:48.035Z,19.20
2019-05-21T15:04:18.001Z,18.10
2019-05-21T15:06:48.125Z,20.57
2019-05-21T15:09:18.027Z,21.63
2019-05-21T15:11:47.652Z,21.67
2019-05-21T15:14:17.295Z,21.73
2019-05-21T15:16:47.383Z,23.53
2019-05-21T15:19:17.047Z,22.63
2019-05-21T15:21:48.774Z,23.07
2019-05-21T15:24:18.385Z,27.03
2019-05-21T15:26:48.028Z,27.87
2019-05-21T15:29:17.683Z,25.07
2019-05-21T15:31:47.268Z,27.60
2019-05-21T15:34:16.858Z,30.73
2019-05-21T15:36:46.474Z,26.80
2019-05-21T15:39:16.645Z,29.20
2019-05-21T15:41:46.323Z,26.40
2019-05-21T15:44:15.961Z,26.43
2019-05-21T15:46:50.047Z,27.13
2019-05-21T15:49:17.203Z,25.97
2019-05-21T15:51:46.995Z,25.07
2019-05-21T15:54:16.628Z,22.87
2019-05-21T15:56:46.788Z,24.07
2019-05-21T15:59:16.388Z,23.13
2019-05-21T16:01:45.963Z,20.80
2019-05-21T16:04:16.815Z,21.23
2019-05-21T16:06:46.713Z,20.80
2019-05-21T16:09:16.510Z,22.50
2019-05-21T16:11:46.423Z,20.23
2019-05-21T16:14:15.973Z,20.97
2019-05-21T16:16:45.655Z,21.30
2019-05-21T16:19:15.189Z,20.57
2019-05-21T16:21:45.059Z,21.60
2019-05-21T16:24:14.659Z,20.03
2019-05-21T16:26:44.222Z,19.97
2019-05-21T16:29:13.869Z,21.57
2019-05-21T16:31:43.525Z,21.20
2019-05-21T16:34:13.147Z,22.73
2019-05-21T16:36:43.198Z,23.07
2019-05-21T16:39:13.734Z,21.60
2019-05-21T16:41:45.168Z,20.37
2019-05-21T16:44:15.012Z,18.87
2019-05-21T16:46:44.926Z,21.10
2019-05-21T16:49:14.726Z,18.67
2019-05-21T16:51:44.301Z,19.43
2019-05-21T16:54:13.932Z,18.47
2019-05-21T16:56:43.526Z,17.87
2019-05-21T16:59:13.153Z,18.63
2019-05-21T17:01:43.081Z,19.87
2019-05-21T17:04:12.712Z,18.93
2019-05-21T17:06:42.642Z,17.43
2019-05-21T17:09:14.062Z,17.70
2019-05-21T17:11:57.558Z,17.43
2019-05-21T17:14:15.056Z,18.10
2019-05-21T17:16:44.621Z,17.10
2019-05-21T17:19:14.476Z,16.03
2019-05-21T17:21:44.274Z,15.87
2019-05-21T17:24:14.021Z,16.27
2019-05-21T17:26:43.783Z,18.27
2019-05-21T17:29:13.396Z,17.80
2019-05-21T17:31:43.042Z,16.20
2019-05-21T17:34:12.740Z,16.53
2019-05-21T17:36:42.399Z,16.17
2019-05-21T17:39:12.045Z,16.03
2019-05-21T17:41:41.586Z,16.77
2019-05-21T17:44:11.495Z,18.60
2019-05-21T17:46:41.045Z,22.33
2019-05-21T17:49:10.606Z,16.70
2019-05-21T17:51:40.330Z,16.93
2019-05-21T17:54:09.965Z,17.70
2019-05-21T17:56:39.965Z,17.40
2019-05-21T17:59:10.783Z,17.67
2019-05-21T18:01:42.925Z,16.50
2019-05-21T18:04:14.139Z,17.30
2019-05-21T18:06:43.706Z,18.97
2019-05-21T18:09:15.410Z,17.17
2019-05-21T18:11:45.975Z,18.40
2019-05-21T18:14:16.122Z,16.67
2019-05-21T18:16:45.739Z,15.97
2019-05-21T18:19:16.102Z,14.87
2019-05-21T18:21:45.990Z,19.93
2019-05-21T18:24:15.590Z,15.53
2019-05-21T18:26:45.140Z,15.73
2019-05-21T18:29:14.702Z,15.33
2019-05-21T18:31:46.066Z,15.13
2019-05-21T18:34:16.157Z,17.27
2019-05-21T18:36:45.788Z,15.80
2019-05-21T18:39:17.207Z,17.93
2019-05-21T18:41:47.983Z,16.23
2019-05-21T18:44:19.308Z,14.43
2019-05-21T18:46:50.380Z,14.73
2019-05-21T18:49:22.150Z,16.13
2019-05-21T18:51:53.836Z,14.33
2019-05-21T18:54:23.500Z,13.87
2019-05-21T18:56:54.746Z,16.17
2019-05-21T18:59:26.767Z,14.90
2019-05-21T19:01:58.038Z,16.10
2019-05-21T19:04:38.588Z,17.23
2019-05-21T19:07:10.841Z,15.47
2019-05-21T19:09:42.033Z,14.37
2019-05-21T19:12:12.949Z,17.40
2019-05-21T19:14:45.400Z,15.07
2019-05-21T19:17:15.592Z,14.53
2019-05-21T19:19:46.822Z,15.47
2019-05-21T19:22:17.814Z,20.17
2019-05-21T19:24:48.873Z,15.63
2019-05-21T19:27:20.661Z,16.20
2019-05-21T19:29:51.525Z,16.10
2019-05-21T19:32:22.589Z,14.47
2019-05-21T19:34:53.639Z,16.83
2019-05-21T19:37:33.115Z,15.23
2019-05-21T19:40:03.722Z,15.20
2019-05-21T19:42:35.627Z,15.70
2019-05-21T19:45:09.660Z,14.80
2019-05-21T19:47:40.643Z,18.27
2019-05-21T19:50:12.118Z,16.43
2019-05-21T19:52:43.835Z,19.23
2019-05-21T19:55:16.325Z,19.73
2019-05-21T19:57:47.699Z,23.27
2019-05-21T20:00:24.344Z,17.73
2019-05-21T20:02:55.488Z,17.43
2019-05-21T20:05:28.384Z,18.33
2019-05-21T20:07:59.655Z,21.47
2019-05-21T20:10:33.976Z,19.13
2019-05-21T20:13:04.460Z,25.40
2019-05-21T20:15:35.649Z,19.77
2019-05-21T20:18:07.883Z,19.43
2019-05-21T20:20:39.505Z,19.67
2019-05-21T20:23:11.566Z,20.20
2019-05-21T20:25:55.406Z,20.40
2019-05-21T20:28:17.960Z,19.90
2019-05-21T20:30:49.474Z,22.20
2019-05-21T20:33:20.973Z,20.37
2019-05-21T20:35:53.808Z,19.63
2019-05-21T20:38:26.317Z,19.30
2019-05-21T20:40:58.005Z,23.83
2019-05-21T20:43:28.982Z,24.73
2019-05-21T20:46:00.918Z,20.37
2019-05-21T20:48:33.401Z,20.67
2019-05-21T20:51:04.434Z,19.47
2019-05-21T20:53:36.403Z,23.50
2019-05-21T20:56:08.703Z,22.57
2019-05-21T20:58:40.323Z,20.67
2019-05-21T21:01:11.091Z,20.73
2019-05-21T21:03:43.246Z,23.17
2019-05-21T21:06:15.118Z,19.33
2019-05-21T21:08:45.684Z,20.67
2019-05-21T21:11:17.742Z,17.60
2019-05-21T21:13:49.197Z,19.03
2019-05-21T21:16:20.746Z,16.57
2019-05-21T21:18:51.818Z,18.70
2019-05-21T21:21:23.952Z,17.87
2019-05-21T21:23:56.835Z,16.40
2019-05-21T21:26:28.864Z,15.73
2019-05-21T21:29:01.114Z,14.77
2019-05-21T21:31:31.090Z,14.63
2019-05-21T21:34:02.440Z,15.43
2019-05-21T21:36:35.308Z,17.27
2019-05-21T21:39:08.984Z,15.37
2019-05-21T21:41:41.252Z,17.50
2019-05-21T21:44:11.201Z,20.97
2019-05-21T21:46:40.779Z,18.83
2019-05-21T21:49:10.687Z,19.87
2019-05-21T21:51:40.916Z,17.30
2019-05-21T21:54:11.480Z,18.00
2019-05-21T21:56:41.109Z,22.57
2019-05-21T21:59:11.781Z,22.00
2019-05-21T22:01:49.606Z,22.70
2019-05-21T22:04:24.240Z,21.47
2019-05-21T22:06:54.824Z,23.07
2019-05-21T22:09:29.459Z,23.67
2019-05-21T22:12:00.263Z,23.20
2019-05-21T22:14:30.454Z,20.87
2019-05-21T22:17:01.096Z,25.40
2019-05-21T22:19:31.847Z,26.67
2019-05-21T22:22:01.578Z,26.20
2019-05-21T22:24:31.346Z,26.83
2019-05-21T22:27:00.972Z,25.60
2019-05-21T22:29:30.717Z,25.70
2019-05-21T22:32:00.319Z,24.10
2019-05-21T22:34:30.227Z,25.83
2019-05-21T22:36:59.865Z,27.03
2019-05-21T22:39:30.934Z,29.40
2019-05-21T22:42:00.511Z,28.30
2019-05-21T22:44:30.066Z,30.53
2019-05-21T22:46:59.957Z,29.77
2019-05-21T22:49:33.638Z,29.97
2019-05-21T22:52:01.113Z,32.63
2019-05-21T22:54:30.811Z,34.93
2019-05-21T22:57:00.394Z,28.27
2019-05-21T22:59:30.029Z,28.83
2019-05-21T23:02:01.581Z,30.80
2019-05-21T23:04:31.405Z,30.83
2019-05-21T23:07:01.365Z,32.43
2019-05-21T23:09:33.090Z,29.77
2019-05-21T23:12:03.158Z,31.07
2019-05-21T23:14:32.757Z,30.50
2019-05-21T23:17:02.478Z,30.43
2019-05-21T23:19:32.025Z,30.23
2019-05-21T23:22:01.861Z,32.37
2019-05-21T23:24:32.672Z,31.17
2019-05-21T23:27:02.229Z,31.23
2019-05-21T23:29:32.235Z,32.53
2019-05-21T23:32:01.834Z,26.70
2019-05-21T23:34:31.772Z,27.73
2019-05-21T23:37:02.471Z,29.83
2019-05-21T23:39:34.339Z,26.50
2019-05-21T23:42:05.868Z,28.20
2019-05-21T23:44:35.576Z,28.03
2019-05-21T23:47:06.877Z,27.50
2019-05-21T23:49:36.605Z,29.80
2019-05-21T23:52:07.164Z,25.30
2019-05-21T23:54:36.742Z,27.07
2019-05-21T23:57:07.603Z,26.03
2019-05-21T23:59:37.508Z,25.83
